Relevés horaires St-Hubert (Belgique)


Relevés horaires à St-Hubert - Jeudi 02 Août 2018
Heure UTC1 Température [°C] Vent [km/h] Hum. [%] Pres.4 [hPa] Visi. [Km] Nébu. [octa] Préc.5 [mm] Cond.
2m. Res. Ros. Dir.2 Vit. Moy. Raf.3
23:00 20.1 20.1 13.3 NE 3.7 3.7 7.4 65 1023.1(0.4/3h) 30 0/8 -- --
22:00 20.6 20.6 12.7 NE 3.7 5.6 9.3 61 1022.8(0.9/3h) 45 0/8 -- --
21:00 22.1 22.1 12.6 ENE 3.7 3.7 9.3 55 1022.4(1.0/3h) 45 0/8 -- --
20:00 23.8 23.8 12.7 NNO 1.9 1.9 7.4 50 1021.8(0.9/3h) 40 0/8 -- --
19:00 25.5 25.5 13.0 NNO 1.9 3.7 9.3 46 1020.7(0.2/3h) 35 0/8 -- --
18:00 27.0 27.0 13.1 NNO 3.7 7.4 13.0 42 1020.3(-0.2/3h) 35 0/8 0/12h
--
17:00 28.1 28.1 12.8 NNO 3.7 7.4 13.0 39 1019.9(-0.5/3h) 30 0/8 -- --
16:00 28.9 28.9 12.0 NNO 5.6 5.6 13.0 35 1019.8(-0.8/3h) 30 0/8 -- --
15:00 27.1 27.1 12.5 NNO 5.6 5.6 9.3 40 1020.5(-0.8/3h) 30 0/8 -- --
14:00 27.9 27.9 12.5 NNO 3.7 5.6 9.3 39 1020.5(-0.8/3h) 30 0/8 -- --
13:00 26.7 26.7 12.6 NNO 5.6 5.6 9.3 42 1021.1(-0.5/3h) 28 0/8 -- --
12:00 25.7 25.7 13.6 ONO 3.7 5.6 13.0 47 1021.6(0.1/3h) 40 0/8 0/6h
--
11:00 26.5 26.5 12.5 E 5.6 5.6 13.0 42 1021.7(0.3/3h) 28 0/8 -- --
10:00 25.0 25.0 13.6 NNO 1.9 5.6 9.3 49 1022(0.6/3h) 30 0/8 -- --
09:00 23.5 23.5 13.5 NNO 3.7 5.6 9.3 53 1022.2(0.8/3h) 30 0/8 -- --
08:00 22.2 22.2 13.1 NNO 5.6 5.6 9.3 56 1022.2(0.8/3h) 28 0/8 -- --
07:00 21.9 21.9 13.6 ONO 5.6 5.6 7.4 59 1022(0.8/3h) 40 0/8 -- --
06:00 19.3 19.3 16.1 ENE 1.9 3.7 3.7 82 1022.1(0.6/3h) 24 0/8 0/12h
--
05:00 16.2 16.2 14.2 O 1.9 1.9 3.7 88 1022.7(0.5/3h) 16 0/8 -- --
04:00 15.8 15.8 14.2 ONO 1.9 3.7 3.7 90 1022.6(0.3/3h) 13 0/8 -- --
03:00 16.0 16.0 14.3 O 1.9 3.7 3.7 90 1022.3(0.0/3h) 40 0/8 -- --
02:00 16.4 16.4 14.2 OSO 3.7 3.7 3.7 87 1022.1(0.0/3h) 45 0/8 -- --
01:00 15.6 15.6 13.6 S 3.7 3.7 3.7 88 1022.3(0.1/3h) 40 0/8 -- --
00:00 17.4 17.4 14.4 SO 1.9 7.4 7.4 83 1021.9(0.1/3h) 45 0/8 0/6h
0/24h
--

1 Coordinated Universal Time. Actuellement il est 17:00 locale et 16:00 UTC.

2 Le vent souffle depuis la direction indiquée vers la direction oposée.

3 Les rafales max. sont disponible 40 min après l'heure du relevé.

4 Pour les stations d'altitude (plus de 600m) le géopotentiel du niveau le plus proche de la pression obligatoire est indiqué.

5 Les stations disposant d'un diffuseur peuvent indiquer "trace". Cela signifie que des précipitations ont touchés le sol mais que la quantité est inférieure à 0.1 mm.

Récapitulatif de la journée
Température [°C] Vent [km/h] Ensoleillement4 [h] Precipitations totale5 [mm] Pression [Hpa]
Min1 Max.2 Moy.3 Max. Min Max.
15.2 29.6 4.9 13.0 0 h 0 min 0 1019.8 1023.1

1 Température minimale relevée entre 18:00 UTC la veille et 18:00 UTC le jour donné.

2 Température maximale relevée entre 06:00 UTC le jour donné et 06:00 UTC le lendemain.

3 Vent moyen de la journée basé sur les relevés horaires.

4 Ensoleillement en heures relevé entre 06:00 UTC la veille et 06:00 UTC le jour donné.

5 Précipitations totales tombées entre 06:00 UTC la jour donné et 06:00 UTC le lendemain.

Graphiques horaires